04:21
Airports
History
Links
Donate
Help keep this website running!
PayPal
Bitcoin
Information on this page is community maintained and may be outdated or inaccurate and is intended for reference only or PC simulator navigating!
Always use approved charts for navigating.
1W2
Baltimore AirparkEdited 13-Sep-2011
Airport Permanently Closed!
Baltimore Airpark (1W2)
Perry Hall, Maryland, United States (21128)
(U)(X)
Lat/Lng:39° 24' 16.39" N / 76° 25' 33.86" W
39.404552 / -76.426073
Elevation:230'ft 70mMSL
ID / ICAO:1W2
Runways:1
Longest:(09-27) 675.9m 2,218ft Asphalt
Airport use:Closed
Distance To
Airport ID:
Nearby VORs <50NM
Nearby NDBs
Nearby WeatherUpdated 03-28-17 03:57 GMT
Nearby weather at KMTN, Martin State located 5.5 nautical miles from 1W2
Altimeter: 29.94
Visibility: 10.0 statute miles
Wind: 0 knots (000°)
Temp: 12°c 54°f
Humidity: 100.0%

METAR: KMTN 280357Z AUTO 00000KT 10SM CLR 12/12 A2994 RMK AO2

(Powered by phpweather)
Runway 09 / 27
Dimensions:675.9 x 14.9m 2218' x 49'ft
Surface:Asphalt
Edge Lights:Low intensity
Runway 09 [A]Runway 27 [B]
Heading:080°TH 260°TH
Lat:
Lng:
39° 24' 14.5"N
76° 25' 47.71"W
39° 24' 18.27"N
76° 25' 20.02"W
Google Map
Nearby Airports
(C) Martin State 5.5 NM
KMTN (WX) S 173°
(R) Albrecht Airstrip 6.2 NM
MD48 NW 320°
(U) Fallston 6.7 NM
W42 N
(U) WEIDE AHP 7.3 NM
KEDG E 97°
(U) Essex Skypark 9.8 NM
W48 S 181°
(R) Forest Hill 12.4 NM
MD31 NNE 12°
(R) Phillips Aaf 14.4 NM
KAPG (WX) ENE 72°
VFR Chart
Flight Planning at SkyVector.com